Time;durP1;ratioP1;P1;durP2;ratioP2;P2;SDS_P1;SDS_P2;PMS_P1;PMS_P2;Temp;Humidity;BMP_temperature;BMP_pressure;BME280_temperature;BME280_humidity;BME280_pressure;Samples;Min_cycle;Max_cycle;Signal;HPM_P1;HPM_P2
2023/01/29 00:00:09;;;;;;;0.40;0.40;;;;;;;18.74;59.20;99581.50;5014225;28;20467;-24
2023/01/29 00:02:35;;;;;;;0.75;0.40;;;;;;;18.71;59.30;99583.91;5013511;28;20021;-24
2023/01/29 00:05:03;;;;;;;0.40;0.40;;;;;;;18.70;59.52;99579.59;5017786;28;20029;-23
2023/01/29 00:07:29;;;;;;;0.88;0.40;;;;;;;18.68;59.02;99569.03;5018352;28;20083;-24
2023/01/29 00:09:54;;;;;;;0.77;0.40;;;;;;;18.67;59.53;99572.00;5017103;28;20048;-24
2023/01/29 00:12:20;;;;;;;0.43;0.40;;;;;;;18.66;59.40;99568.47;5019474;28;20033;-23
2023/01/29 00:14:46;;;;;;;1.20;0.47;;;;;;;18.68;59.25;99574.44;5020542;28;20030;-23
2023/01/29 00:17:11;;;;;;;0.95;0.47;;;;;;;18.68;59.20;99570.91;5016416;28;20439;-23
2023/01/29 00:19:37;;;;;;;0.85;0.50;;;;;;;18.65;59.41;99568.72;5018676;28;20604;-24
2023/01/29 00:22:03;;;;;;;1.58;0.50;;;;;;;18.65;59.26;99566.03;5019363;28;20032;-24
2023/01/29 00:24:28;;;;;;;0.88;0.43;;;;;;;18.66;59.25;99562.22;5020421;28;20032;-24
2023/01/29 00:26:54;;;;;;;1.20;0.60;;;;;;;18.65;59.29;99555.22;5020676;28;20033;-24
2023/01/29 00:29:20;;;;;;;0.80;0.47;;;;;;;18.67;59.30;99563.88;5021769;28;20030;-24
2023/01/29 00:31:46;;;;;;;0.50;0.50;;;;;;;18.67;59.16;99553.03;5022132;28;20029;-24
2023/01/29 00:34:12;;;;;;;0.45;0.43;;;;;;;18.65;59.45;99555.22;5020444;28;20021;-24
2023/01/29 00:36:38;;;;;;;0.57;0.50;;;;;;;18.63;59.42;99551.94;5022216;28;20029;-24
2023/01/29 00:39:09;;;;;;;2.13;0.50;;;;;;;18.65;59.41;99552.50;5020841;28;20075;-24
2023/01/29 00:47:03;;;;;;;0.30;0.30;;;;;;;18.59;59.30;99554.34;5022464;28;20099;-23
2023/01/29 00:49:37;;;;;;;0.40;0.38;;;;;;;18.61;59.55;99554.06;5025120;28;20025;-23
2023/01/29 00:54:46;;;;;;;0.95;0.63;;;;;;;18.55;59.02;99553.25;5024749;28;20513;-23
2023/01/29 00:57:12;;;;;;;0.60;0.50;;;;;;;18.61;59.27;99549.50;5026191;28;20029;-23
2023/01/29 00:59:38;;;;;;;0.73;0.50;;;;;;;18.60;59.40;99547.84;5025136;28;20025;-23
2023/01/29 01:04:47;;;;;;;0.45;0.40;;;;;;;18.60;59.24;99542.44;5025622;28;20024;-26
2023/01/29 01:07:13;;;;;;;0.82;0.57;;;;;;;18.60;59.45;99552.47;5025823;28;20033;-23
2023/01/29 01:12:23;;;;;;;0.70;0.50;;;;;;;18.54;59.84;99538.91;5025024;28;20404;-24
2023/01/29 01:14:48;;;;;;;0.55;0.50;;;;;;;18.59;59.65;99535.41;5025800;28;20033;-23
2023/01/29 01:17:14;;;;;;;0.40;0.40;;;;;;;18.58;59.59;99539.19;5026175;28;20082;-24
2023/01/29 01:19:40;;;;;;;1.10;0.52;;;;;;;18.57;59.57;99543.81;5026178;28;20021;-22
2023/01/29 01:22:06;;;;;;;1.67;0.50;;;;;;;18.57;59.57;99538.38;5026338;28;20155;-24
2023/01/29 01:24:31;;;;;;;0.63;0.50;;;;;;;18.57;59.54;99541.09;5024805;28;20079;-22
2023/01/29 01:26:57;;;;;;;0.80;0.30;;;;;;;18.57;59.44;99541.09;5025932;28;20482;-22
2023/01/29 01:29:23;;;;;;;0.68;0.40;;;;;;;18.58;59.44;99545.41;5025610;28;20110;-23
2023/01/29 01:31:49;;;;;;;1.52;0.52;;;;;;;18.57;59.21;99543.81;5025760;28;20096;-23
2023/01/29 01:34:14;;;;;;;0.77;0.50;;;;;;;18.52;59.78;99546.47;5023377;28;20033;-23
2023/01/29 01:36:40;;;;;;;0.93;0.40;;;;;;;18.57;59.47;99540.25;5025967;28;20029;-22
2023/01/29 01:39:06;;;;;;;0.60;0.47;;;;;;;18.57;59.30;99537.56;5025481;28;20033;-23
2023/01/29 01:41:31;;;;;;;0.73;0.45;;;;;;;18.57;59.25;99534.84;5024705;28;20033;-26
2023/01/29 01:44:06;;;;;;;1.35;0.60;;;;;;;18.56;59.51;99544.88;5025275;28;20074;-23
2023/01/29 01:46:36;;;;;;;1.42;0.50;;;;;;;18.54;59.23;99541.59;5026105;28;20495;-23
2023/01/29 01:49:08;;;;;;;0.68;0.47;;;;;;;18.55;59.18;99543.22;5024306;28;20029;-23
2023/01/29 01:51:34;;;;;;;0.50;0.40;;;;;;;18.55;59.36;99532.41;5024138;28;20044;-22
2023/01/29 01:54:04;;;;;;;1.10;0.43;;;;;;;18.55;59.05;99521.56;5023371;28;20032;-25
2023/01/29 01:56:37;;;;;;;0.40;0.40;;;;;;;18.53;59.31;99522.94;5025214;28;20036;-23
2023/01/29 01:59:04;;;;;;;0.93;0.40;;;;;;;18.55;59.24;99523.47;5025456;28;20053;-24
2023/01/29 02:01:29;;;;;;;0.38;0.35;;;;;;;18.55;59.31;99513.47;5007007;28;20108;-22
2023/01/29 02:09:40;;;;;;;0.50;0.40;;;;;;;18.50;58.97;99499.91;5023110;28;20605;-24
2023/01/29 02:12:08;;;;;;;1.02;0.47;;;;;;;18.46;59.46;99503.41;5023107;28;20033;-23
2023/01/29 02:14:37;;;;;;;0.77;0.40;;;;;;;18.51;59.33;99501.53;5022722;28;20383;-22
2023/01/29 02:17:04;;;;;;;1.42;0.63;;;;;;;18.49;59.19;99492.88;5024955;28;20048;-23
2023/01/29 02:19:55;;;;;;;0.93;0.60;;;;;;;18.53;59.40;99498.56;5022156;28;20103;-25
2023/01/29 02:22:46;;;;;;;0.85;0.43;;;;;;;18.52;59.25;99486.13;5024592;28;20040;-23
2023/01/29 02:25:19;;;;;;;0.95;0.50;;;;;;;18.48;59.50;99483.13;5022246;28;20467;-23
2023/01/29 02:27:47;;;;;;;0.40;0.40;;;;;;;18.49;59.50;99490.16;5022957;28;20036;-22
2023/01/29 02:30:37;;;;;;;1.08;0.70;;;;;;;18.47;59.44;99481.50;5024630;28;20036;-24
2023/01/29 02:33:11;;;;;;;1.45;0.50;;;;;;;18.50;59.52;99483.66;5009636;28;20135;-23
2023/01/29 02:35:43;;;;;;;1.08;0.50;;;;;;;18.48;59.55;99483.13;5022055;28;20682;-23
2023/01/29 02:38:36;;;;;;;0.68;0.40;;;;;;;18.48;59.55;99482.31;5022994;28;20057;-22
2023/01/29 02:41:12;;;;;;;0.60;0.50;;;;;;;18.45;59.60;99480.94;5024098;28;20028;-22
2023/01/29 02:43:46;;;;;;;0.80;0.52;;;;;;;18.48;59.46;99493.13;4999778;28;20082;-23
2023/01/29 02:46:34;;;;;;;1.08;0.60;;;;;;;18.47;59.46;99497.75;5021098;28;20029;-23
2023/01/29 02:49:27;;;;;;;0.40;0.32;;;;;;;18.46;59.67;99498.81;5023297;28;20467;-23
2023/01/29 02:52:07;;;;;;;0.57;0.40;;;;;;;18.46;59.71;99498.81;5023594;28;20060;-23
2023/01/29 02:54:52;;;;;;;0.75;0.40;;;;;;;18.47;59.51;99503.16;5006680;28;20115;-23
2023/01/29 02:57:37;;;;;;;0.50;0.40;;;;;;;18.43;58.98;99504.72;5022747;28;20104;-23
2023/01/29 03:00:23;;;;;;;0.75;0.40;;;;;;;18.38;59.49;99508.25;5022003;28;20029;-23
2023/01/29 03:02:59;;;;;;;0.63;0.52;;;;;;;18.47;59.48;99510.44;5005846;28;20079;-23
2023/01/29 03:05:32;;;;;;;1.13;0.50;;;;;;;18.45;59.40;99501.75;5020241;28;20029;-23
2023/01/29 03:08:01;;;;;;;0.80;0.60;;;;;;;18.43;59.65;99493.09;4998753;28;20503;-23
2023/01/29 03:10:38;;;;;;;0.73;0.40;;;;;;;18.44;59.54;99494.72;5023378;28;20030;-23
2023/01/29 03:13:15;;;;;;;0.80;0.50;;;;;;;18.44;59.46;99490.13;5023713;28;20252;-23
2023/01/29 03:15:47;;;;;;;1.13;0.70;;;;;;;18.32;59.75;99492.22;5020548;28;20036;-23
2023/01/29 03:18:21;;;;;;;0.40;0.40;;;;;;;18.43;59.56;99496.63;5022644;28;20434;-22
2023/01/29 03:20:50;;;;;;;0.43;0.40;;;;;;;18.42;59.80;99496.88;5022381;28;20022;-23
2023/01/29 03:23:26;;;;;;;0.40;0.40;;;;;;;18.43;59.76;99499.31;4994415;28;20372;-23
2023/01/29 03:34:23;;;;;;;1.50;0.50;;;;;;;18.41;59.60;99492.56;5021541;28;20032;-22
2023/01/29 03:36:58;;;;;;;1.33;0.60;;;;;;;18.41;59.66;99484.44;5023012;28;20384;-23
2023/01/29 03:39:27;;;;;;;0.70;0.40;;;;;;;18.39;59.78;99482.00;5002825;28;20036;-23
2023/01/29 03:41:56;;;;;;;0.40;0.40;;;;;;;18.41;59.61;99481.72;5021753;28;20130;-23
2023/01/29 03:44:31;;;;;;;0.50;0.40;;;;;;;18.38;59.46;99474.94;5022890;28;20029;-25
2023/01/29 03:47:03;;;;;;;0.95;0.60;;;;;;;18.39;59.55;99484.69;5022723;28;20021;-23
2023/01/29 03:49:38;;;;;;;0.63;0.35;;;;;;;18.40;59.76;99475.50;5018843;28;20029;-22
2023/01/29 03:52:15;;;;;;;0.45;0.43;;;;;;;18.40;59.38;99472.78;5006108;28;20121;-22
2023/01/29 03:55:40;;;;;;;0.98;0.43;;;;;;;18.42;59.44;99476.06;5021680;28;20033;-23
2023/01/29 03:58:35;;;;;;;0.82;0.40;;;;;;;18.38;59.54;99469.53;5007084;28;20041;-22
2023/01/29 04:01:10;;;;;;;0.77;0.50;;;;;;;18.39;59.76;99463.06;5021912;28;20017;-22
2023/01/29 04:03:38;;;;;;;0.43;0.40;;;;;;;18.40;59.40;99472.78;5019756;28;20049;-24
2023/01/29 04:06:11;;;;;;;0.75;0.60;;;;;;;18.42;59.27;99461.72;5022042;28;20038;-23
2023/01/29 04:08:57;;;;;;;0.65;0.40;;;;;;;18.41;59.22;99462.81;5022199;28;20024;-23
2023/01/29 04:11:23;;;;;;;0.40;0.40;;;;;;;18.35;59.83;99451.13;5020705;28;20438;-24
2023/01/29 04:13:49;;;;;;;0.65;0.45;;;;;;;18.40;59.43;99448.44;5021869;28;20697;-23
2023/01/29 04:16:23;;;;;;;0.82;0.60;;;;;;;18.38;59.47;99454.13;5021234;28;20438;-22
2023/01/29 04:18:51;;;;;;;;;;;;;;;18.41;59.39;99452.78;4994644;28;20525;-23
2023/01/29 04:21:18;;;;;;;1.20;0.50;;;;;;;18.40;59.47;99445.72;5024681;28;20007;-23
2023/01/29 04:23:44;;;;;;;0.75;0.40;;;;;;;18.38;59.47;99448.72;5024954;28;20028;-23
2023/01/29 04:26:24;;;;;;;0.70;0.43;;;;;;;18.38;59.37;99437.91;5026757;28;20033;-23
2023/01/29 04:28:53;;;;;;;0.68;0.47;;;;;;;18.38;59.25;99437.06;5026513;28;20025;-25
2023/01/29 04:31:21;;;;;;;1.08;0.50;;;;;;;18.38;59.68;99431.66;5025985;28;20075;-23
2023/01/29 04:34:10;;;;;;;0.45;0.40;;;;;;;18.38;59.26;99432.50;5025331;28;20034;-24
2023/01/29 04:36:40;;;;;;;1.48;0.50;;;;;;;18.36;59.34;99428.41;5026255;28;20478;-24
2023/01/29 04:39:12;;;;;;;0.52;0.50;;;;;;;18.35;59.64;99424.91;5026921;28;20022;-24
2023/01/29 04:41:56;;;;;;;0.52;0.43;;;;;;;18.36;59.54;99425.72;5023756;28;20761;-23
2023/01/29 04:44:49;;;;;;;0.77;0.47;;;;;;;18.28;58.80;99426.19;5026788;28;20036;-23
2023/01/29 04:47:44;;;;;;;2.10;0.43;;;;;;;18.32;59.74;99432.72;5025752;28;20362;-23
2023/01/29 04:50:15;;;;;;;0.45;0.40;;;;;;;18.32;59.60;99432.72;5019903;28;20121;-23
2023/01/29 04:53:02;;;;;;;0.85;0.50;;;;;;;18.34;59.51;99417.03;5024338;28;20048;-24
2023/01/29 04:55:46;;;;;;;0.60;0.50;;;;;;;18.34;59.35;99420.56;5005515;28;20029;-23
2023/01/29 04:58:54;;;;;;;0.40;0.40;;;;;;;18.30;59.78;99407.81;5023165;28;20029;-23
2023/01/29 05:01:21;;;;;;;0.40;0.40;;;;;;;18.34;59.45;99414.34;4962590;28;20416;-24
2023/01/29 05:03:49;;;;;;;0.50;0.40;;;;;;;18.31;59.81;99412.97;5012964;28;20037;-23
2023/01/29 05:06:15;;;;;;;0.65;0.50;;;;;;;18.30;59.84;99413.22;5023542;28;20053;-23
2023/01/29 05:08:41;;;;;;;0.85;0.50;;;;;;;18.32;59.74;99411.09;5022824;28;20064;-22
2023/01/29 05:11:07;;;;;;;0.55;0.40;;;;;;;18.34;59.64;99414.34;5024906;28;20025;-23
2023/01/29 05:13:33;;;;;;;0.80;0.55;;;;;;;18.33;59.58;99412.69;5022613;28;20033;-24
2023/01/29 05:16:09;;;;;;;0.68;0.45;;;;;;;18.33;59.62;99410.00;5024495;28;20484;-23
2023/01/29 05:18:34;;;;;;;0.28;0.28;;;;;;;18.29;59.22;99406.19;5021983;28;20052;-23
2023/01/29 05:21:03;;;;;;;0.40;0.40;;;;;;;18.33;59.38;99418.13;5024906;28;20094;-23
2023/01/29 05:23:28;;;;;;;1.25;0.40;;;;;;;18.29;59.55;99417.81;5005770;28;20473;-24
2023/01/29 05:25:54;;;;;;;0.75;0.60;;;;;;;18.30;59.64;99418.63;5024645;28;20021;-23
2023/01/29 05:28:20;;;;;;;0.52;0.40;;;;;;;18.30;59.59;99413.22;5002092;28;20025;-23
2023/01/29 05:30:55;;;;;;;0.40;0.40;;;;;;;18.33;59.59;99415.41;5024298;28;20018;-22
2023/01/29 05:33:28;;;;;;;0.50;0.50;;;;;;;18.31;59.36;99417.56;5020951;28;20387;-22
2023/01/29 05:35:54;;;;;;;0.32;0.32;;;;;;;18.29;59.64;99412.41;5022885;28;20030;-22
2023/01/29 05:38:19;;;;;;;0.70;0.43;;;;;;;18.31;59.48;99425.69;5023566;28;20064;-24
2023/01/29 05:40:45;;;;;;;0.93;0.50;;;;;;;18.30;59.62;99414.06;5024242;28;20013;-23
2023/01/29 05:43:19;;;;;;;0.40;0.40;;;;;;;18.33;59.35;99418.13;5024355;28;20026;-24
2023/01/29 05:45:52;;;;;;;1.30;0.60;;;;;;;18.30;59.45;99414.06;5023446;28;20076;-23
2023/01/29 05:48:18;;;;;;;1.17;0.50;;;;;;;18.31;59.46;99415.66;5024255;28;20253;-23
2023/01/29 05:50:43;;;;;;;1.38;0.43;;;;;;;18.29;59.40;99407.00;4972982;28;1488384;-23
2023/01/29 05:53:09;;;;;;;1.40;0.50;;;;;;;18.30;59.53;99403.22;5025197;28;20475;-22
2023/01/29 05:55:35;;;;;;;0.50;0.40;;;;;;;18.30;59.25;99403.22;4981885;28;20034;-24
2023/01/29 05:58:00;;;;;;;0.65;0.50;;;;;;;18.29;59.48;99395.38;5025416;28;20538;-23
2023/01/29 06:00:26;;;;;;;1.20;0.52;;;;;;;18.28;59.42;99391.88;5023811;28;20024;-24
2023/01/29 06:02:52;;;;;;;1.38;0.52;;;;;;;18.28;59.50;99393.75;5025550;28;20030;-23
2023/01/29 06:05:18;;;;;;;1.17;0.43;;;;;;;18.27;59.31;99401.06;5023179;28;20021;-22
2023/01/29 06:07:44;;;;;;;0.55;0.40;;;;;;;18.26;59.38;99404.00;5024740;28;20036;-24
2023/01/29 06:10:13;;;;;;;0.90;0.43;;;;;;;18.28;59.41;99399.16;5024685;28;20449;-23
2023/01/29 06:12:39;;;;;;;0.70;0.40;;;;;;;18.25;59.36;99389.69;5024770;28;20025;-24
2023/01/29 06:15:05;;;;;;;0.90;0.40;;;;;;;18.28;59.10;99382.94;5022216;28;20516;-23
2023/01/29 06:17:31;;;;;;;0.63;0.43;;;;;;;18.26;59.42;99395.91;5023898;28;20060;-24
2023/01/29 06:19:57;;;;;;;0.50;0.32;;;;;;;18.25;59.44;99392.38;5023564;28;20025;-24
2023/01/29 06:22:22;;;;;;;0.77;0.57;;;;;;;18.25;59.33;99395.09;5023683;28;20526;-25
2023/01/29 06:24:48;;;;;;;0.50;0.50;;;;;;;18.25;59.19;99394.25;5022895;28;20079;-24
2023/01/29 06:27:14;;;;;;;0.93;0.52;;;;;;;18.27;59.16;99398.34;5023824;28;20040;-23
2023/01/29 06:29:39;;;;;;;0.40;0.40;;;;;;;18.27;59.11;99398.34;5023257;28;20119;-24
2023/01/29 06:32:05;;;;;;;0.52;0.45;;;;;;;18.27;59.12;99408.34;5024167;28;20021;-23
2023/01/29 06:34:31;;;;;;;1.17;0.50;;;;;;;18.26;59.18;99409.44;5021651;28;20534;-23
2023/01/29 06:36:57;;;;;;;0.90;0.40;;;;;;;18.27;59.03;99398.34;5023722;28;20125;-23
2023/01/29 06:39:22;;;;;;;0.40;0.40;;;;;;;18.26;58.87;99393.19;5021183;28;20087;-24
2023/01/29 06:41:48;;;;;;;0.60;0.50;;;;;;;18.26;59.11;99382.38;5023602;28;20025;-23
2023/01/29 06:44:13;;;;;;;0.30;0.30;;;;;;;18.26;59.20;99390.50;5022683;28;20040;-24
2023/01/29 06:46:39;;;;;;;0.60;0.50;;;;;;;18.26;59.32;99385.09;5022834;28;20040;-23
2023/01/29 06:49:05;;;;;;;1.15;0.50;;;;;;;18.24;59.20;99387.25;5024191;28;20029;-23
2023/01/29 06:51:30;;;;;;;1.33;0.43;;;;;;;18.24;58.98;99379.13;5024202;28;20411;-23
2023/01/29 06:53:57;;;;;;;0.55;0.50;;;;;;;18.23;59.11;99370.22;5024008;28;20021;-23
2023/01/29 06:56:22;;;;;;;0.43;0.35;;;;;;;18.25;59.12;99373.47;5023406;28;20029;-23
2023/01/29 06:58:48;;;;;;;0.50;0.30;;;;;;;18.22;59.30;99367.75;5024093;28;20038;-23
2023/01/29 07:01:14;;;;;;;0.60;0.50;;;;;;;18.24;59.06;99368.31;5022055;28;20187;-23
2023/01/29 07:03:42;;;;;;;0.50;0.50;;;;;;;18.23;58.84;99366.66;5023324;28;22118;-25
2023/01/29 07:06:08;;;;;;;0.75;0.50;;;;;;;18.23;59.10;99380.19;5021887;28;20030;-26
2023/01/29 07:08:37;;;;;;;0.32;0.30;;;;;;;18.22;59.17;99379.38;5022055;28;20502;-23
2023/01/29 07:11:03;;;;;;;0.50;0.40;;;;;;;18.21;59.23;99377.75;5024859;28;20028;-22
2023/01/29 07:13:29;;;;;;;0.60;0.50;;;;;;;18.22;59.07;99373.19;5022431;28;20459;-23
2023/01/29 07:15:59;;;;;;;0.63;0.35;;;;;;;18.22;59.21;99379.38;5023956;28;20125;-23
2023/01/29 07:18:25;;;;;;;1.35;0.55;;;;;;;18.23;58.85;99370.22;5022910;28;20116;-23
2023/01/29 07:20:51;;;;;;;1.08;0.60;;;;;;;18.23;59.13;99370.22;5022835;28;20093;-23
2023/01/29 07:23:18;;;;;;;0.47;0.40;;;;;;;18.23;59.13;99372.91;5022574;28;20033;-23
2023/01/29 07:25:44;;;;;;;1.17;0.40;;;;;;;18.20;59.10;99371.53;5020953;28;20087;-23
2023/01/29 07:28:09;;;;;;;0.82;0.60;;;;;;;18.22;58.94;99384.00;5021486;28;20025;-23
2023/01/29 07:30:35;;;;;;;0.38;0.35;;;;;;;18.20;59.18;99379.66;5023605;28;20030;-23
2023/01/29 07:33:05;;;;;;;1.33;0.50;;;;;;;18.20;59.23;99382.34;5022175;28;20022;-23
2023/01/29 07:35:31;;;;;;;0.40;0.40;;;;;;;18.15;59.42;99382.31;5020785;28;20074;-23
2023/01/29 07:37:57;;;;;;;1.80;0.32;;;;;;;18.19;59.10;99380.72;5022765;28;20021;-23
2023/01/29 07:40:22;;;;;;;0.70;0.40;;;;;;;18.22;59.14;99375.88;5022756;28;20037;-23
2023/01/29 07:42:48;;;;;;;0.63;0.50;;;;;;;18.21;59.12;99377.75;5021138;28;20079;-25
2023/01/29 07:45:14;;;;;;;0.40;0.40;;;;;;;18.19;59.15;99375.31;5023314;28;20048;-23
2023/01/29 07:47:40;;;;;;;0.82;0.40;;;;;;;18.21;58.87;99372.34;5022264;28;20029;-23
2023/01/29 07:50:06;;;;;;;0.70;0.60;;;;;;;18.20;59.30;99376.13;5022758;28;20388;-23
2023/01/29 07:52:32;;;;;;;0.45;0.40;;;;;;;18.22;58.94;99375.88;5023494;28;20030;-24
2023/01/29 07:55:00;;;;;;;1.02;0.60;;;;;;;18.19;59.09;99375.31;5022252;28;20025;-23
2023/01/29 07:57:25;;;;;;;0.50;0.50;;;;;;;18.22;59.00;99375.88;5021619;28;20021;-23
2023/01/29 07:59:51;;;;;;;0.60;0.47;;;;;;;18.20;58.86;99385.06;5022978;28;20039;-22
2023/01/29 08:02:17;;;;;;;0.40;0.40;;;;;;;18.18;59.15;99373.69;5023682;28;20404;-22
2023/01/29 08:04:42;;;;;;;0.60;0.40;;;;;;;18.19;59.00;99380.72;5022497;28;20028;-23
2023/01/29 08:07:08;;;;;;;0.40;0.40;;;;;;;18.18;59.20;99383.72;5020655;28;20498;-23
2023/01/29 08:09:35;;;;;;;0.50;0.50;;;;;;;18.17;59.19;99382.88;5020596;28;20021;-23
2023/01/29 08:12:00;;;;;;;0.40;0.40;;;;;;;18.18;59.15;99371.00;5022486;28;20029;-23
2023/01/29 08:14:26;;;;;;;0.70;0.52;;;;;;;18.16;59.16;99375.84;5021844;28;20102;-24
2023/01/29 08:16:52;;;;;;;0.47;0.47;;;;;;;18.18;59.13;99373.69;5022384;28;20064;-23
2023/01/29 08:19:18;;;;;;;1.52;0.60;;;;;;;18.18;59.17;99368.28;5020495;28;20036;-25
2023/01/29 08:21:44;;;;;;;9.18;0.85;;;;;;;18.18;59.09;99367.47;5020645;28;20040;-23
2023/01/29 08:24:09;;;;;;;4.63;1.08;;;;;;;18.19;59.08;99366.38;5022109;28;20529;-24
2023/01/29 08:26:35;;;;;;;6.72;1.13;;;;;;;18.17;59.13;99360.44;5020820;28;20102;-22
2023/01/29 08:29:01;;;;;;;5.00;1.13;;;;;;;18.19;59.14;99350.97;5020482;28;20072;-23
2023/01/29 08:31:26;;;;;;;9.50;1.20;;;;;;;18.18;59.25;99343.16;5021430;28;20112;-23
2023/01/29 08:33:55;;;;;;;6.78;1.10;;;;;;;18.16;59.22;99338.00;5020052;28;20037;-23
2023/01/29 08:36:21;;;;;;;6.60;1.20;;;;;;;18.16;59.53;99332.59;5021610;28;20116;-23
2023/01/29 08:38:47;;;;;;;7.65;1.42;;;;;;;18.17;59.27;99333.38;5021586;28;20030;-24
2023/01/29 08:41:12;;;;;;;8.35;1.65;;;;;;;18.18;59.21;99326.91;5022013;28;20038;-23
2023/01/29 08:43:39;;;;;;;8.43;1.33;;;;;;;18.15;59.54;99336.34;5020107;28;20021;-23
2023/01/29 08:46:05;;;;;;;10.40;1.50;;;;;;;18.18;59.31;99340.44;5020925;28;20033;-23
2023/01/29 08:48:30;;;;;;;3.70;1.30;;;;;;;18.20;59.17;99330.97;5020853;28;20040;-24
2023/01/29 08:50:58;;;;;;;4.35;1.23;;;;;;;18.19;59.30;99331.22;5021185;28;20045;-23
2023/01/29 08:53:23;;;;;;;8.85;1.92;;;;;;;18.17;59.20;99328.78;5019949;28;20040;-23
2023/01/29 08:55:49;;;;;;;4.85;1.15;;;;;;;18.18;59.29;99325.03;5021686;28;20030;-25
2023/01/29 08:58:15;;;;;;;7.60;1.50;;;;;;;18.18;59.40;99308.78;5021918;28;20070;-23
2023/01/29 09:00:40;;;;;;;4.88;1.38;;;;;;;18.18;59.32;99308.78;5022064;28;20538;-23
2023/01/29 09:03:06;;;;;;;6.60;1.40;;;;;;;18.19;59.39;99307.69;5020713;28;20025;-25
2023/01/29 09:05:33;;;;;;;7.75;1.10;;;;;;;18.18;59.44;99311.50;5021999;28;20021;-24
2023/01/29 09:07:59;;;;;;;5.95;1.30;;;;;;;18.16;59.65;99305.53;5024776;28;20151;-23
2023/01/29 09:10:25;;;;;;;9.10;1.92;;;;;;;18.20;59.44;99311.25;5025822;28;20112;-22
2023/01/29 09:12:50;;;;;;;6.97;1.30;;;;;;;18.18;59.20;99295.28;5024045;28;20048;-24
2023/01/29 09:15:17;;;;;;;5.78;1.25;;;;;;;18.17;59.57;99301.75;5024737;28;20029;-23
2023/01/29 09:17:43;;;;;;;5.63;1.08;;;;;;;18.19;59.55;99299.59;5025718;28;20033;-24
2023/01/29 09:20:09;;;;;;;4.88;1.33;;;;;;;18.17;59.54;99290.94;5025849;28;20034;-22
2023/01/29 09:22:35;;;;;;;8.18;1.52;;;;;;;18.18;59.12;99281.75;5023524;28;20025;-23
2023/01/29 09:25:01;;;;;;;5.97;1.17;;;;;;;18.19;59.46;99282.56;5024156;28;20475;-23
2023/01/29 09:27:27;;;;;;;11.85;1.30;;;;;;;18.19;59.58;99280.66;5024667;28;20060;-21
2023/01/29 09:29:52;;;;;;;6.10;1.27;;;;;;;18.18;59.45;99286.34;5025575;28;20045;-20
2023/01/29 09:32:18;;;;;;;5.82;1.33;;;;;;;18.19;59.77;99274.44;5024087;28;20132;-23
2023/01/29 09:34:44;;;;;;;6.85;1.50;;;;;;;18.19;59.56;99266.34;5024629;28;20392;-23
2023/01/29 09:37:09;;;;;;;4.88;1.42;;;;;;;18.19;59.44;99261.72;5025237;28;20117;-24
2023/01/29 09:39:35;;;;;;;4.38;0.90;;;;;;;18.21;59.53;99258.75;5023805;28;20032;-23
2023/01/29 09:42:18;;;;;;;4.70;1.30;;;;;;;18.23;59.55;99250.38;5023869;28;20487;-23
2023/01/29 09:44:53;;;;;;;4.43;1.63;;;;;;;18.20;59.55;99241.72;5023729;28;20031;-23
2023/01/29 09:47:23;;;;;;;4.60;1.20;;;;;;;18.22;59.46;99238.75;5023582;28;20052;-23
2023/01/29 09:50:04;;;;;;;4.38;1.20;;;;;;;18.20;59.52;99239.03;5022909;28;20120;-23
2023/01/29 09:52:42;;;;;;;7.22;1.30;;;;;;;18.16;59.37;99240.66;5025346;28;20034;-24
2023/01/29 09:55:24;;;;;;;10.18;1.77;;;;;;;18.16;61.17;99227.13;5024254;28;20054;-24
2023/01/29 09:57:52;;;;;;;16.00;1.55;;;;;;;17.74;63.21;99227.19;5022729;28;20029;-31
2023/01/29 10:00:26;;;;;;;9.40;1.63;;;;;;;17.64;62.97;99220.69;5021438;28;20036;-26
2023/01/29 10:03:00;;;;;;;14.82;1.67;;;;;;;17.68;62.38;99217.44;5023053;28;20025;-24
2023/01/29 10:06:05;;;;;;;11.38;2.35;;;;;;;17.68;62.19;99223.66;5022962;28;20017;-23
2023/01/29 10:08:49;;;;;;;9.07;1.60;;;;;;;17.70;62.04;99220.72;5003756;28;20092;-24
2023/01/29 10:11:39;;;;;;;9.48;1.55;;;;;;;17.71;62.09;99217.72;5019961;28;20034;-30
2023/01/29 10:14:13;;;;;;;5.70;1.40;;;;;;;17.73;62.10;99210.19;5024252;28;20029;-24
2023/01/29 10:17:11;;;;;;;11.35;1.50;;;;;;;17.72;62.12;99203.16;5022990;28;20028;-26
2023/01/29 10:19:43;;;;;;;10.07;1.77;;;;;;;17.73;62.03;99198.53;4991224;28;20352;-26
2023/01/29 10:22:27;;;;;;;5.47;1.50;;;;;;;17.75;62.06;99196.41;5024650;28;20044;-26
2023/01/29 10:25:21;;;;;;;7.38;1.42;;;;;;;17.75;61.89;99197.22;5023615;28;20034;-24
2023/01/29 10:27:52;;;;;;;6.57;1.77;;;;;;;17.73;62.07;99187.72;5003231;28;20037;-25
2023/01/29 10:30:23;;;;;;;7.75;1.92;;;;;;;17.75;62.01;99191.81;5023036;28;20033;-22
2023/01/29 10:32:49;;;;;;;7.32;2.00;;;;;;;17.76;62.02;99188.03;5023457;28;20052;-23
2023/01/29 10:35:28;;;;;;;3.42;1.20;;;;;;;17.77;61.82;99184.25;5022079;28;20030;-23
2023/01/29 10:37:54;;;;;;;8.73;1.40;;;;;;;17.76;61.90;99179.91;5006580;28;20037;-23
2023/01/29 10:40:31;;;;;;;7.20;1.50;;;;;;;17.76;61.81;99177.22;5023213;28;20067;-24
2023/01/29 10:43:03;;;;;;;7.10;1.63;;;;;;;17.77;61.83;99167.22;5020494;28;20025;-24
2023/01/29 10:45:57;;;;;;;5.07;1.35;;;;;;;17.78;61.96;99172.38;5020433;28;20118;-23
2023/01/29 10:48:47;;;;;;;6.15;1.42;;;;;;;17.79;61.96;99171.28;5022654;28;20033;-20
2023/01/29 10:51:30;;;;;;;6.97;1.40;;;;;;;17.78;61.87;99164.28;5024001;28;20042;-21
2023/01/29 10:54:45;;;;;;;5.47;1.35;;;;;;;17.78;61.92;99164.28;5025457;28;20025;-22
2023/01/29 10:57:31;;;;;;;2.70;1.15;;;;;;;17.79;61.71;99152.38;4952615;28;20137;-22
2023/01/29 11:00:18;;;;;;;4.97;1.40;;;;;;;17.78;61.95;99145.34;4946531;28;20057;-21
2023/01/29 11:02:45;;;;;;;4.75;1.40;;;;;;;17.80;61.88;99147.78;5005843;28;20099;-24
2023/01/29 11:05:22;;;;;;;3.75;1.30;;;;;;;17.82;61.91;99143.72;5018882;28;20116;-20
2023/01/29 11:07:48;;;;;;;3.53;1.30;;;;;;;17.81;61.74;99133.19;5001680;28;20033;-21
2023/01/29 11:10:15;;;;;;;6.80;1.13;;;;;;;17.82;61.87;99124.81;5018432;28;20117;-20
2023/01/29 11:12:42;;;;;;;6.20;1.33;;;;;;;17.79;61.82;99116.44;5017567;28;20360;-20
2023/01/29 11:15:10;;;;;;;3.38;1.30;;;;;;;17.83;61.78;99117.50;5018346;28;20113;-23
2023/01/29 11:17:36;;;;;;;4.05;1.20;;;;;;;17.82;62.01;99105.91;5019361;28;20304;-22
2023/01/29 11:20:02;;;;;;;3.40;1.17;;;;;;;17.83;61.85;99096.72;5023166;28;20022;-24
2023/01/29 11:22:29;;;;;;;4.90;1.20;;;;;;;17.84;61.68;99092.13;5006752;28;20032;-20
2023/01/29 11:25:19;;;;;;;7.93;1.50;;;;;;;17.84;61.85;99087.53;5024798;28;20120;-20
2023/01/29 11:27:51;;;;;;;3.03;1.13;;;;;;;17.83;61.87;99079.69;5023505;28;20033;-24
2023/01/29 11:30:44;;;;;;;3.20;1.02;;;;;;;17.86;61.81;99060.25;5024194;28;20533;-22
2023/01/29 11:33:21;;;;;;;4.90;1.20;;;;;;;17.86;61.78;99064.84;5022276;28;20041;-22
2023/01/29 11:35:46;;;;;;;3.55;0.98;;;;;;;17.83;61.98;99050.78;5024061;28;20406;-23
2023/01/29 11:38:15;;;;;;;4.18;0.98;;;;;;;17.87;61.80;99061.06;5023492;28;20060;-24
2023/01/29 11:40:41;;;;;;;4.10;0.88;;;;;;;17.86;61.82;99054.84;5024704;28;20030;-25
2023/01/29 11:43:20;;;;;;;4.75;1.10;;;;;;;17.88;61.82;99057.28;5024706;28;20083;-22
2023/01/29 11:45:47;;;;;;;5.35;1.40;;;;;;;17.88;61.73;99049.19;5022059;28;20044;-22
2023/01/29 11:48:17;;;;;;;4.70;1.33;;;;;;;17.88;62.00;99041.09;5022636;28;20025;-26
2023/01/29 11:50:43;;;;;;;2.95;1.00;;;;;;;17.88;61.70;99043.78;5023977;28;20120;-23
2023/01/29 11:53:35;;;;;;;2.95;1.17;;;;;;;17.89;61.84;99042.72;5023028;28;20121;-24
2023/01/29 11:56:04;;;;;;;3.28;1.10;;;;;;;17.89;61.96;99046.22;5019606;28;20041;-20
2023/01/29 11:58:31;;;;;;;2.28;0.70;;;;;;;17.88;61.67;99043.78;5006453;28;20029;-21
2023/01/29 12:00:57;;;;;;;1.67;0.85;;;;;;;17.88;61.79;99035.69;5024296;28;20021;-21
2023/01/29 12:03:43;;;;;;;3.17;1.13;;;;;;;17.89;61.93;99034.59;5023447;28;20273;-23
2023/01/29 12:06:21;;;;;;;3.88;0.90;;;;;;;17.90;61.96;99030.81;5023925;28;20387;-24
2023/01/29 12:08:55;;;;;;;2.33;1.02;;;;;;;17.87;61.87;99020.53;5024067;28;20044;-23
2023/01/29 12:11:31;;;;;;;3.20;0.95;;;;;;;17.88;62.02;99019.47;5021140;28;20060;-23
2023/01/29 12:13:59;;;;;;;2.05;0.90;;;;;;;17.90;61.79;99014.59;5024117;28;20029;-24
2023/01/29 12:16:35;;;;;;;3.58;0.73;;;;;;;17.91;61.90;99010.81;5022013;28;20396;-24
2023/01/29 12:19:13;;;;;;;2.30;1.15;;;;;;;17.89;62.00;99013.00;5023342;28;20029;-24